createdAt,value
2022-09-28T00:01:25.061Z,100.00
2022-09-28T00:03:54.532Z,100.00
2022-09-28T00:06:24.512Z,100.00
2022-09-28T00:08:51.598Z,100.00
2022-09-28T00:11:20.764Z,100.00
2022-09-28T00:13:51.799Z,100.00
2022-09-28T00:16:20.796Z,100.00
2022-09-28T00:18:47.423Z,100.00
2022-09-28T00:21:17.434Z,100.00
2022-09-28T00:24:03.272Z,100.00
2022-09-28T00:26:32.961Z,100.00
2022-09-28T00:29:01.603Z,100.00
2022-09-28T00:31:32.663Z,100.00
2022-09-28T00:34:00.795Z,100.00
2022-09-28T00:36:31.720Z,100.00
2022-09-28T00:38:59.876Z,100.00
2022-09-28T00:41:28.016Z,100.00
2022-09-28T00:44:26.416Z,100.00
2022-09-28T00:47:07.398Z,100.00
2022-09-28T00:49:38.639Z,100.00
2022-09-28T00:52:09.649Z,100.00
2022-09-28T00:54:36.645Z,100.00
2022-09-28T00:57:04.259Z,100.00
2022-09-28T00:59:33.374Z,100.00
2022-09-28T01:02:01.306Z,100.00
2022-09-28T01:04:30.174Z,100.00
2022-09-28T01:06:58.950Z,100.00
2022-09-28T01:09:27.609Z,100.00
2022-09-28T01:11:55.237Z,100.00
2022-09-28T01:14:25.721Z,100.00
2022-09-28T01:17:06.749Z,100.00
2022-09-28T01:19:58.915Z,100.00
2022-09-28T01:22:34.578Z,100.00
2022-09-28T01:25:16.749Z,100.00
2022-09-28T01:27:50.463Z,100.00
2022-09-28T01:30:19.914Z,100.00
2022-09-28T01:33:07.172Z,99.42
2022-09-28T01:35:43.382Z,99.21
2022-09-28T01:38:17.509Z,98.79
2022-09-28T01:40:46.297Z,98.81
2022-09-28T01:43:19.122Z,98.66
2022-09-28T01:45:51.625Z,98.20
2022-09-28T01:48:25.613Z,97.37
2022-09-28T01:50:57.954Z,97.36
2022-09-28T01:53:31.851Z,96.49
2022-09-28T01:56:04.169Z,97.00
2022-09-28T01:58:37.895Z,96.90
2022-09-28T02:01:13.184Z,96.78
2022-09-28T02:03:46.899Z,96.20
2022-09-28T02:06:22.280Z,96.17
2022-09-28T02:08:56.550Z,96.10
2022-09-28T02:11:23.750Z,95.88
2022-09-28T02:13:52.789Z,96.25
2022-09-28T02:16:39.411Z,96.26
2022-09-28T02:19:08.842Z,96.73
2022-09-28T02:22:27.532Z,97.08
2022-09-28T02:25:09.850Z,96.77
2022-09-28T02:27:36.438Z,96.89
2022-09-28T02:30:06.072Z,96.87
2022-09-28T02:32:35.182Z,96.80
2022-09-28T02:35:01.839Z,96.99
2022-09-28T02:37:28.400Z,97.46
2022-09-28T02:39:55.459Z,97.60
2022-09-28T02:42:33.117Z,97.52
2022-09-28T02:45:08.654Z,98.06
2022-09-28T02:47:50.687Z,98.30
2022-09-28T02:50:54.696Z,98.36
2022-09-28T02:53:33.469Z,98.82
2022-09-28T02:56:15.104Z,98.98
2022-09-28T02:59:01.333Z,98.88
2022-09-28T03:01:30.932Z,98.66
2022-09-28T03:04:00.193Z,98.62
2022-09-28T03:06:26.681Z,98.98
2022-09-28T03:09:01.057Z,99.29
2022-09-28T03:11:36.436Z,99.82
2022-09-28T03:14:04.254Z,100.00
2022-09-28T03:16:32.239Z,100.00
2022-09-28T03:18:58.895Z,100.00
2022-09-28T03:21:25.511Z,100.00
2022-09-28T03:23:52.047Z,100.00
2022-09-28T03:26:19.836Z,100.00
2022-09-28T03:28:46.797Z,100.00
2022-09-28T03:31:13.414Z,100.00
2022-09-28T03:33:39.960Z,100.00
2022-09-28T03:36:08.666Z,100.00
2022-09-28T03:38:35.492Z,100.00
2022-09-28T03:41:02.088Z,100.00
2022-09-28T03:43:30.502Z,100.00
2022-09-28T03:46:00.412Z,100.00
2022-09-28T03:48:32.421Z,100.00
2022-09-28T03:51:05.457Z,100.00
2022-09-28T03:53:33.056Z,100.00
2022-09-28T03:56:08.338Z,100.00
2022-09-28T03:58:34.891Z,100.00
2022-09-28T04:01:03.721Z,100.00
2022-09-28T04:03:31.196Z,100.00
2022-09-28T04:05:58.089Z,100.00
2022-09-28T04:08:24.653Z,100.00
2022-09-28T04:10:51.425Z,100.00
2022-09-28T04:13:17.980Z,100.00
2022-09-28T04:15:53.298Z,100.00
2022-09-28T04:18:20.432Z,100.00
2022-09-28T04:20:48.223Z,100.00
2022-09-28T04:23:17.684Z,100.00
2022-09-28T04:25:47.866Z,100.00
2022-09-28T04:28:33.034Z,100.00
2022-09-28T04:30:59.663Z,100.00
2022-09-28T04:33:26.204Z,100.00
2022-09-28T04:35:52.727Z,100.00
2022-09-28T04:38:30.872Z,100.00
2022-09-28T04:41:06.127Z,100.00
2022-09-28T04:43:32.682Z,100.00
2022-09-28T04:46:02.802Z,100.00
2022-09-28T04:48:29.638Z,100.00
2022-09-28T04:50:57.186Z,100.00
2022-09-28T04:53:25.068Z,100.00
2022-09-28T04:55:59.618Z,100.00
2022-09-28T04:58:26.765Z,100.00
2022-09-28T05:00:54.382Z,100.00
2022-09-28T05:03:21.166Z,100.00
2022-09-28T05:05:49.103Z,100.00
2022-09-28T05:08:16.257Z,100.00
2022-09-28T05:10:43.144Z,100.00
2022-09-28T05:13:11.623Z,100.00
2022-09-28T05:15:39.584Z,100.00
2022-09-28T05:18:07.367Z,100.00
2022-09-28T05:20:39.688Z,100.00
2022-09-28T05:23:06.230Z,100.00
2022-09-28T05:25:33.964Z,100.00
2022-09-28T05:28:01.822Z,100.00
2022-09-28T05:30:28.337Z,100.00
2022-09-28T05:32:54.910Z,100.00
2022-09-28T05:35:21.449Z,100.00
2022-09-28T05:37:48.178Z,100.00
2022-09-28T05:40:15.058Z,100.00
2022-09-28T05:42:42.368Z,100.00
2022-09-28T05:45:10.245Z,100.00
2022-09-28T05:47:41.113Z,100.00
2022-09-28T05:50:11.629Z,100.00
2022-09-28T05:52:38.865Z,100.00
2022-09-28T05:55:06.857Z,100.00
2022-09-28T05:57:33.472Z,100.00
2022-09-28T06:00:00.145Z,100.00
2022-09-28T06:02:26.802Z,100.00
2022-09-28T06:04:53.924Z,100.00
2022-09-28T06:07:23.903Z,100.00
2022-09-28T06:09:50.454Z,100.00
2022-09-28T06:12:17.067Z,100.00
2022-09-28T06:14:44.176Z,100.00
2022-09-28T06:17:10.732Z,100.00
2022-09-28T06:19:37.270Z,100.00
2022-09-28T06:22:03.823Z,100.00
2022-09-28T06:24:30.357Z,100.00
2022-09-28T06:26:56.913Z,100.00
2022-09-28T06:29:23.414Z,100.00
2022-09-28T06:31:49.924Z,100.00
2022-09-28T06:34:17.321Z,100.00
2022-09-28T06:36:43.966Z,100.00
2022-09-28T06:39:10.533Z,100.00
2022-09-28T06:41:37.069Z,100.00
2022-09-28T06:44:03.785Z,100.00
2022-09-28T06:46:31.476Z,100.00
2022-09-28T06:48:58.770Z,100.00
2022-09-28T06:51:25.296Z,100.00
2022-09-28T06:53:53.908Z,100.00
2022-09-28T06:56:21.087Z,100.00
2022-09-28T06:58:48.112Z,100.00
2022-09-28T07:01:14.746Z,100.00
2022-09-28T07:03:41.345Z,100.00
2022-09-28T07:06:11.441Z,100.00
2022-09-28T07:08:38.277Z,100.00
2022-09-28T07:11:06.951Z,100.00
2022-09-28T07:13:49.698Z,100.00
2022-09-28T07:16:17.423Z,100.00
2022-09-28T07:18:44.254Z,100.00
2022-09-28T07:21:20.266Z,100.00
2022-09-28T07:23:54.347Z,100.00
2022-09-28T07:26:24.032Z,100.00
2022-09-28T07:28:51.072Z,100.00
2022-09-28T07:31:17.720Z,100.00
2022-09-28T07:33:44.364Z,100.00
2022-09-28T07:36:10.881Z,100.00
2022-09-28T07:38:38.321Z,100.00
2022-09-28T07:41:22.528Z,100.00
2022-09-28T07:43:49.883Z,100.00
2022-09-28T07:46:17.581Z,100.00
2022-09-28T07:48:45.898Z,100.00
2022-09-28T07:51:12.649Z,100.00
2022-09-28T07:53:39.255Z,100.00
2022-09-28T07:56:07.997Z,100.00
2022-09-28T07:58:36.585Z,100.00
2022-09-28T08:01:06.522Z,100.00
2022-09-28T08:03:33.850Z,100.00
2022-09-28T08:06:09.877Z,100.00
2022-09-28T08:08:36.640Z,100.00
2022-09-28T08:11:03.641Z,100.00
2022-09-28T08:13:31.115Z,100.00
2022-09-28T08:16:01.582Z,100.00
2022-09-28T08:18:28.198Z,100.00
2022-09-28T08:21:13.285Z,100.00
2022-09-28T08:23:39.811Z,100.00
2022-09-28T08:26:06.710Z,100.00
2022-09-28T08:28:33.478Z,100.00
2022-09-28T08:31:04.706Z,100.00
2022-09-28T08:33:31.366Z,100.00
2022-09-28T08:35:59.283Z,100.00
2022-09-28T08:38:28.820Z,100.00
2022-09-28T08:41:19.136Z,100.00
2022-09-28T08:43:54.634Z,100.00
2022-09-28T08:46:27.012Z,100.00
2022-09-28T08:49:24.563Z,100.00
2022-09-28T08:52:23.381Z,99.87
2022-09-28T08:55:02.344Z,99.04
2022-09-28T08:57:36.263Z,98.58
2022-09-28T09:00:09.624Z,98.69
2022-09-28T09:02:39.804Z,97.88
2022-09-28T09:05:13.825Z,98.50
2022-09-28T09:07:49.009Z,97.64
2022-09-28T09:10:36.908Z,97.80
2022-09-28T09:13:24.992Z,97.56
2022-09-28T09:15:51.523Z,95.02
2022-09-28T09:18:33.250Z,94.58
2022-09-28T09:21:09.813Z,94.25
2022-09-28T09:23:54.217Z,91.02
2022-09-28T09:26:39.679Z,89.24
2022-09-28T09:29:21.410Z,91.19
2022-09-28T09:32:17.523Z,91.26
2022-09-28T09:35:07.727Z,89.68
2022-09-28T09:37:34.622Z,89.96
2022-09-28T09:40:26.370Z,88.07
2022-09-28T09:43:29.526Z,87.68
2022-09-28T09:46:11.823Z,88.22
2022-09-28T09:48:41.448Z,89.22
2022-09-28T09:51:18.483Z,87.47
2022-09-28T09:53:52.893Z,88.24
2022-09-28T09:56:31.650Z,86.92
2022-09-28T09:59:06.364Z,82.84
2022-09-28T10:01:37.773Z,79.83
2022-09-28T10:04:07.970Z,81.55
2022-09-28T10:06:36.618Z,83.01
2022-09-28T10:09:45.785Z,78.33
2022-09-28T10:12:18.856Z,81.29
2022-09-28T10:14:46.421Z,82.62
2022-09-28T10:17:19.772Z,80.21
2022-09-28T10:19:46.458Z,79.94
2022-09-28T10:22:21.532Z,80.93
2022-09-28T10:24:51.730Z,78.18
2022-09-28T10:27:23.974Z,77.53
2022-09-28T10:29:59.324Z,77.14
2022-09-28T10:32:28.295Z,75.64
2022-09-28T10:35:31.440Z,75.77
2022-09-28T10:38:01.804Z,75.26
2022-09-28T10:40:37.597Z,73.43
2022-09-28T10:43:08.262Z,74.03
2022-09-28T10:45:37.419Z,75.47
2022-09-28T10:48:06.141Z,76.01
2022-09-28T10:50:32.714Z,75.22
2022-09-28T10:53:20.581Z,73.21
2022-09-28T10:55:59.395Z,75.30
2022-09-28T10:58:29.387Z,76.28
2022-09-28T11:01:02.069Z,77.75
2022-09-28T11:03:30.476Z,76.90
2022-09-28T11:06:01.524Z,76.60
2022-09-28T11:08:44.578Z,74.23
2022-09-28T11:11:16.335Z,74.06
2022-09-28T11:13:49.889Z,73.63
2022-09-28T11:16:44.191Z,70.97
2022-09-28T11:19:20.220Z,72.07
2022-09-28T11:21:46.969Z,70.36
2022-09-28T11:24:23.666Z,70.89
2022-09-28T11:26:52.993Z,70.76
2022-09-28T11:29:38.929Z,68.81
2022-09-28T11:32:06.299Z,69.48
2022-09-28T11:34:58.057Z,69.06
2022-09-28T11:37:27.802Z,67.90
2022-09-28T11:40:13.303Z,66.62
2022-09-28T11:43:10.663Z,69.46
2022-09-28T11:45:51.056Z,68.78
2022-09-28T11:48:23.923Z,68.74
2022-09-28T11:50:58.489Z,69.39
2022-09-28T11:53:37.134Z,67.55
2022-09-28T11:56:27.000Z,68.42
2022-09-28T11:58:58.036Z,67.51
2022-09-28T12:01:46.474Z,66.29
2022-09-28T12:04:19.040Z,66.60
2022-09-28T12:07:31.464Z,66.27
2022-09-28T12:10:10.380Z,65.97
2022-09-28T12:12:54.289Z,65.72
2022-09-28T12:15:26.008Z,66.12
2022-09-28T12:18:07.819Z,65.95
2022-09-28T12:20:40.196Z,65.75
2022-09-28T12:23:31.044Z,61.93
2022-09-28T12:26:14.553Z,62.70
2022-09-28T12:28:49.849Z,63.43
2022-09-28T12:31:54.692Z,62.83
2022-09-28T12:34:22.176Z,60.48
2022-09-28T12:37:33.557Z,60.44
2022-09-28T12:40:18.306Z,60.40
2022-09-28T12:43:06.883Z,60.93
2022-09-28T12:46:10.836Z,60.72
2022-09-28T12:51:57.664Z,60.27
2022-09-28T12:54:47.324Z,58.23
2022-09-28T12:57:48.247Z,58.12
2022-09-28T13:00:22.249Z,58.52
2022-09-28T13:03:29.078Z,56.03
2022-09-28T13:06:34.320Z,56.39
2022-09-28T13:09:20.719Z,53.75
2022-09-28T13:12:00.000Z,55.30
2022-09-28T13:15:05.009Z,55.15
2022-09-28T13:17:31.491Z,56.50
2022-09-28T13:19:59.193Z,57.13
2022-09-28T13:23:15.053Z,55.09
2022-09-28T13:25:47.916Z,56.44
2022-09-28T13:28:18.664Z,54.72
2022-09-28T13:30:46.068Z,54.57
2022-09-28T13:33:28.914Z,54.32
2022-09-28T13:35:55.426Z,54.66
2022-09-28T13:38:21.905Z,55.89
2022-09-28T13:41:06.790Z,55.88
2022-09-28T13:43:53.537Z,56.62
2022-09-28T13:46:36.775Z,57.36
2022-09-28T13:49:26.907Z,57.84
2022-09-28T13:52:05.155Z,57.85
2022-09-28T13:55:16.681Z,58.10
2022-09-28T13:58:04.551Z,57.95
2022-09-28T14:00:54.227Z,57.85
2022-09-28T14:03:43.396Z,59.97
2022-09-28T14:06:29.992Z,59.99
2022-09-28T14:09:15.922Z,60.12
2022-09-28T14:11:55.014Z,60.40
2022-09-28T14:14:26.606Z,59.01
2022-09-28T14:17:19.311Z,59.64
2022-09-28T14:19:52.251Z,60.64
2022-09-28T14:22:57.818Z,61.11
2022-09-28T14:25:27.789Z,60.30
2022-09-28T14:28:03.353Z,60.74
2022-09-28T14:30:41.967Z,61.12
2022-09-28T14:33:26.615Z,61.15
2022-09-28T14:36:05.282Z,61.70
2022-09-28T14:39:05.642Z,61.57
2022-09-28T14:41:36.476Z,61.28
2022-09-28T14:44:08.500Z,61.32
2022-09-28T14:46:40.597Z,62.03
2022-09-28T14:49:19.764Z,62.52
2022-09-28T14:51:58.562Z,62.51
2022-09-28T14:54:27.703Z,62.46
2022-09-28T14:57:03.112Z,62.32
2022-09-28T14:59:36.225Z,62.90
2022-09-28T15:02:13.390Z,62.86
2022-09-28T15:04:48.883Z,62.83
2022-09-28T15:07:28.718Z,62.08
2022-09-28T15:09:59.831Z,62.56
2022-09-28T15:12:28.935Z,62.86
2022-09-28T15:14:57.425Z,62.75
2022-09-28T15:17:29.196Z,63.48
2022-09-28T15:20:00.840Z,62.79
2022-09-28T15:22:27.554Z,63.62
2022-09-28T15:25:02.000Z,63.54
2022-09-28T15:27:38.024Z,62.96
2022-09-28T15:30:25.442Z,62.89
2022-09-28T15:32:56.605Z,63.48
2022-09-28T15:35:26.561Z,63.19
2022-09-28T15:37:55.034Z,63.60
2022-09-28T15:40:33.675Z,63.35
2022-09-28T15:43:00.571Z,63.37
2022-09-28T15:45:37.062Z,63.85
2022-09-28T15:48:43.116Z,63.85
2022-09-28T15:51:11.597Z,63.77
2022-09-28T15:53:51.342Z,63.89
2022-09-28T15:56:17.881Z,63.46
2022-09-28T15:59:13.031Z,62.85
2022-09-28T16:01:42.484Z,63.39
2022-09-28T16:04:33.738Z,63.88
2022-09-28T16:07:09.371Z,63.42
2022-09-28T16:09:55.661Z,63.89
2022-09-28T16:12:31.256Z,64.11
2022-09-28T16:15:03.964Z,64.61
2022-09-28T16:17:33.642Z,65.37
2022-09-28T16:20:18.897Z,65.69
2022-09-28T16:22:45.969Z,66.25
2022-09-28T16:25:19.579Z,66.55
2022-09-28T16:27:46.234Z,66.58
2022-09-28T16:30:27.286Z,67.03
2022-09-28T16:33:05.798Z,67.13
2022-09-28T16:35:50.930Z,67.73
2022-09-28T16:38:19.023Z,68.37
2022-09-28T16:40:50.664Z,68.91
2022-09-28T16:43:30.280Z,68.93
2022-09-28T16:46:04.450Z,69.26
2022-09-28T16:48:34.308Z,69.34
2022-09-28T16:51:00.854Z,69.11
2022-09-28T16:53:46.072Z,69.51
2022-09-28T16:56:13.454Z,70.00
2022-09-28T16:58:40.151Z,70.50
2022-09-28T17:01:09.601Z,70.43
2022-09-28T17:03:36.296Z,70.62
2022-09-28T17:06:06.117Z,70.87
2022-09-28T17:08:35.392Z,71.58
2022-09-28T17:11:24.507Z,71.71
2022-09-28T17:13:51.913Z,71.46
2022-09-28T17:16:42.682Z,71.69
2022-09-28T17:19:18.128Z,72.36
2022-09-28T17:21:44.992Z,72.61
2022-09-28T17:24:11.551Z,72.91
2022-09-28T17:26:38.183Z,73.58
2022-09-28T17:29:08.720Z,73.58
2022-09-28T17:31:35.265Z,73.44
2022-09-28T17:34:01.834Z,73.52
2022-09-28T17:36:30.414Z,73.12
2022-09-28T17:38:57.288Z,72.18
2022-09-28T17:41:24.000Z,71.94
2022-09-28T17:43:50.537Z,71.87
2022-09-28T17:46:28.338Z,71.75
2022-09-28T17:48:59.571Z,72.15
2022-09-28T17:51:31.138Z,71.70
2022-09-28T17:53:58.727Z,72.12
2022-09-28T17:56:29.710Z,72.69
2022-09-28T17:59:07.462Z,72.61
2022-09-28T18:01:37.585Z,72.78
2022-09-28T18:04:06.654Z,72.62
2022-09-28T18:06:37.422Z,72.32
2022-09-28T18:09:04.970Z,72.53
2022-09-28T18:11:32.583Z,72.71
2022-09-28T18:13:59.189Z,73.11
2022-09-28T18:16:27.986Z,73.33
2022-09-28T18:18:54.956Z,74.05
2022-09-28T18:21:21.740Z,73.50
2022-09-28T18:23:48.587Z,74.25
2022-09-28T18:26:16.833Z,74.13
2022-09-28T18:28:43.413Z,73.43
2022-09-28T18:31:12.228Z,73.50
2022-09-28T18:33:39.442Z,73.02
2022-09-28T18:36:07.424Z,73.70
2022-09-28T18:38:37.910Z,73.15
2022-09-28T18:41:16.143Z,73.25
2022-09-28T18:43:48.876Z,72.76
2022-09-28T18:46:18.230Z,73.33
2022-09-28T18:48:44.955Z,73.27
2022-09-28T18:51:12.487Z,73.40
2022-09-28T18:53:39.786Z,73.27
2022-09-28T18:56:08.667Z,73.33
2022-09-28T18:58:39.891Z,72.90
2022-09-28T19:04:00.422Z,73.31
2022-09-28T19:06:27.751Z,72.20
2022-09-28T19:08:57.921Z,72.09
2022-09-28T19:11:25.323Z,71.87
2022-09-28T19:13:53.525Z,72.27
2022-09-28T19:16:22.481Z,72.95
2022-09-28T19:18:51.382Z,73.19
2022-09-28T19:21:18.089Z,72.82
2022-09-28T19:23:49.261Z,72.96
2022-09-28T19:26:22.594Z,72.86
2022-09-28T19:28:49.243Z,72.96
2022-09-28T19:31:16.276Z,73.09
2022-09-28T19:33:43.817Z,73.08
2022-09-28T19:36:13.570Z,72.80
2022-09-28T19:38:40.752Z,73.02
2022-09-28T19:41:12.399Z,72.77
2022-09-28T19:43:40.708Z,72.82
2022-09-28T19:46:08.246Z,73.06
2022-09-28T19:48:35.452Z,73.65
2022-09-28T19:51:05.024Z,73.05
2022-09-28T19:53:36.684Z,73.40
2022-09-28T19:56:05.398Z,73.61
2022-09-28T19:58:34.555Z,73.53
2022-09-28T20:01:04.569Z,74.27
2022-09-28T20:03:30.974Z,73.96
2022-09-28T20:05:58.650Z,73.99
2022-09-28T20:08:26.259Z,74.77
2022-09-28T20:10:54.583Z,75.03
2022-09-28T20:13:21.640Z,75.17
2022-09-28T20:15:48.377Z,75.46
2022-09-28T20:18:15.238Z,75.58
2022-09-28T20:20:42.586Z,75.99
2022-09-28T20:23:09.323Z,76.08
2022-09-28T20:25:35.927Z,76.22
2022-09-28T20:28:02.359Z,76.00
2022-09-28T20:30:28.764Z,76.40
2022-09-28T20:32:55.189Z,75.92
2022-09-28T20:35:32.253Z,76.07
2022-09-28T20:38:07.786Z,77.08
2022-09-28T20:40:35.257Z,76.14
2022-09-28T20:43:01.864Z,76.40
2022-09-28T20:45:28.307Z,76.98
2022-09-28T20:47:54.725Z,76.90
2022-09-28T20:50:22.029Z,77.20
2022-09-28T20:52:48.537Z,77.18
2022-09-28T20:55:15.009Z,76.76
2022-09-28T20:57:41.618Z,76.53
2022-09-28T21:00:10.409Z,77.18
2022-09-28T21:02:36.930Z,77.36
2022-09-28T21:05:03.529Z,77.54
2022-09-28T21:07:29.956Z,78.23
2022-09-28T21:09:56.363Z,78.70
2022-09-28T21:12:25.957Z,77.61
2022-09-28T21:14:53.710Z,77.97
2022-09-28T21:17:20.690Z,77.53
2022-09-28T21:19:47.106Z,78.02
2022-09-28T21:22:13.551Z,78.07
2022-09-28T21:24:40.050Z,77.56
2022-09-28T21:27:06.482Z,78.06
2022-09-28T21:29:32.905Z,78.05
2022-09-28T21:31:59.328Z,78.34
2022-09-28T21:34:25.778Z,78.36
2022-09-28T21:36:52.639Z,78.17
2022-09-28T21:39:20.101Z,77.85
2022-09-28T21:41:46.546Z,77.76
2022-09-28T21:44:13.014Z,77.82
2022-09-28T21:46:39.794Z,77.82
2022-09-28T21:49:07.434Z,78.03
2022-09-28T21:51:34.549Z,78.01
2022-09-28T21:54:01.092Z,78.52
2022-09-28T21:56:27.514Z,78.42
2022-09-28T21:58:54.000Z,77.93
2022-09-28T22:01:21.934Z,78.72
2022-09-28T22:03:50.591Z,78.19
2022-09-28T22:06:21.524Z,78.62
2022-09-28T22:08:48.870Z,78.18
2022-09-28T22:11:16.896Z,78.75
2022-09-28T22:13:44.759Z,79.44
2022-09-28T22:16:12.126Z,79.54
2022-09-28T22:18:38.606Z,80.08
2022-09-28T22:21:15.258Z,80.06
2022-09-28T22:23:41.691Z,80.90
2022-09-28T22:26:13.137Z,80.86
2022-09-28T22:28:44.243Z,79.74
2022-09-28T22:31:10.693Z,79.93
2022-09-28T22:33:37.157Z,79.64
2022-09-28T22:36:03.645Z,80.14
2022-09-28T22:38:31.756Z,80.41
2022-09-28T22:40:58.418Z,80.38
2022-09-28T22:43:25.771Z,80.08
2022-09-28T22:46:10.905Z,80.30
2022-09-28T22:48:37.789Z,80.30
2022-09-28T22:51:06.186Z,80.78
2022-09-28T22:53:33.394Z,81.59
2022-09-28T22:56:01.480Z,81.58
2022-09-28T22:58:27.953Z,82.03
2022-09-28T23:00:56.411Z,82.03
2022-09-28T23:03:23.202Z,82.03
2022-09-28T23:05:56.322Z,82.25
2022-09-28T23:08:23.529Z,82.37
2022-09-28T23:10:50.216Z,82.91
2022-09-28T23:13:16.883Z,83.65
2022-09-28T23:15:43.377Z,83.32
2022-09-28T23:18:10.229Z,83.64
2022-09-28T23:20:36.652Z,83.62
2022-09-28T23:23:03.140Z,83.43
2022-09-28T23:25:29.584Z,83.85
2022-09-28T23:27:55.999Z,83.95
2022-09-28T23:30:23.670Z,83.82
2022-09-28T23:32:51.745Z,84.31
2022-09-28T23:35:18.142Z,84.47
2022-09-28T23:37:48.751Z,84.35
2022-09-28T23:40:15.175Z,83.98
2022-09-28T23:42:41.540Z,84.38
2022-09-28T23:45:08.310Z,83.96
2022-09-28T23:47:37.340Z,84.43
2022-09-28T23:50:04.759Z,84.29
2022-09-28T23:52:31.228Z,84.54
2022-09-28T23:54:57.638Z,84.80
2022-09-28T23:57:24.045Z,85.24
2022-09-28T23:59:50.477Z,84.82
